sensor_id;sensor_type;location;lat;lon;timestamp;P1;durP1;ratioP1;P2;durP2;ratioP2
10719;SDS011;5411;58.386;15.560;2024-03-23T00:53:24;11.80;;;3.00;;
10719;SDS011;5411;58.386;15.560;2024-03-23T00:55:51;10.13;;;2.53;;
10719;SDS011;5411;58.386;15.560;2024-03-23T01:01:07;10.00;;;2.57;;
10719;SDS011;5411;58.386;15.560;2024-03-23T01:03:34;15.17;;;2.97;;
10719;SDS011;5411;58.386;15.560;2024-03-23T01:06:00;17.60;;;3.73;;
10719;SDS011;5411;58.386;15.560;2024-03-23T01:08:28;18.07;;;3.00;;
10719;SDS011;5411;58.386;15.560;2024-03-23T01:11:00;13.40;;;2.83;;
10719;SDS011;5411;58.386;15.560;2024-03-23T01:13:28;12.57;;;2.87;;
10719;SDS011;5411;58.386;15.560;2024-03-23T01:15:54;13.07;;;3.33;;
10719;SDS011;5411;58.386;15.560;2024-03-23T01:18:23;12.10;;;3.03;;
10719;SDS011;5411;58.386;15.560;2024-03-23T01:20:49;10.53;;;2.70;;
10719;SDS011;5411;58.386;15.560;2024-03-23T01:23:19;10.67;;;2.87;;
10719;SDS011;5411;58.386;15.560;2024-03-23T01:25:51;12.77;;;2.73;;
10719;SDS011;5411;58.386;15.560;2024-03-23T01:28:22;9.00;;;3.00;;
10719;SDS011;5411;58.386;15.560;2024-03-23T01:30:49;15.70;;;2.90;;
10719;SDS011;5411;58.386;15.560;2024-03-23T01:33:16;16.57;;;2.97;;
10719;SDS011;5411;58.386;15.560;2024-03-23T01:35:42;16.80;;;2.83;;
10719;SDS011;5411;58.386;15.560;2024-03-23T01:38:09;12.43;;;2.80;;
10719;SDS011;5411;58.386;15.560;2024-03-23T01:40:35;11.20;;;2.40;;
10719;SDS011;5411;58.386;15.560;2024-03-23T01:43:05;17.53;;;3.00;;
10719;SDS011;5411;58.386;15.560;2024-03-23T01:45:36;11.30;;;2.30;;
10719;SDS011;5411;58.386;15.560;2024-03-23T01:48:04;8.37;;;2.73;;
10719;SDS011;5411;58.386;15.560;2024-03-23T01:50:31;11.50;;;3.07;;
10719;SDS011;5411;58.386;15.560;2024-03-23T01:53:00;12.17;;;3.90;;
10719;SDS011;5411;58.386;15.560;2024-03-23T01:55:28;11.17;;;2.93;;
10719;SDS011;5411;58.386;15.560;2024-03-23T01:57:58;10.90;;;2.60;;
10719;SDS011;5411;58.386;15.560;2024-03-23T02:00:33;11.40;;;3.17;;
10719;SDS011;5411;58.386;15.560;2024-03-23T02:03:00;20.13;;;4.07;;
10719;SDS011;5411;58.386;15.560;2024-03-23T02:05:26;19.50;;;3.33;;
10719;SDS011;5411;58.386;15.560;2024-03-23T02:07:55;13.73;;;2.77;;
10719;SDS011;5411;58.386;15.560;2024-03-23T02:10:21;12.27;;;2.60;;
10719;SDS011;5411;58.386;15.560;2024-03-23T02:12:48;14.93;;;3.00;;
10719;SDS011;5411;58.386;15.560;2024-03-23T02:15:14;9.87;;;2.93;;
10719;SDS011;5411;58.386;15.560;2024-03-23T02:17:41;12.50;;;3.47;;
10719;SDS011;5411;58.386;15.560;2024-03-23T02:20:11;12.40;;;3.13;;
10719;SDS011;5411;58.386;15.560;2024-03-23T02:22:42;12.10;;;4.27;;
10719;SDS011;5411;58.386;15.560;2024-03-23T02:25:08;18.73;;;4.13;;
10719;SDS011;5411;58.386;15.560;2024-03-23T02:27:35;13.47;;;3.40;;
10719;SDS011;5411;58.386;15.560;2024-03-23T02:30:01;14.90;;;3.30;;
10719;SDS011;5411;58.386;15.560;2024-03-23T02:32:31;15.47;;;3.43;;
10719;SDS011;5411;58.386;15.560;2024-03-23T02:34:57;18.20;;;3.20;;
10719;SDS011;5411;58.386;15.560;2024-03-23T02:37:24;15.60;;;3.23;;
10719;SDS011;5411;58.386;15.560;2024-03-23T02:39:50;17.87;;;3.63;;
10719;SDS011;5411;58.386;15.560;2024-03-23T02:42:17;11.70;;;3.10;;
10719;SDS011;5411;58.386;15.560;2024-03-23T02:44:44;16.77;;;4.33;;
10719;SDS011;5411;58.386;15.560;2024-03-23T02:47:14;17.27;;;3.60;;
10719;SDS011;5411;58.386;15.560;2024-03-23T02:49:40;11.37;;;2.50;;
10719;SDS011;5411;58.386;15.560;2024-03-23T02:52:07;12.73;;;2.77;;
10719;SDS011;5411;58.386;15.560;2024-03-23T02:54:33;14.87;;;2.77;;
10719;SDS011;5411;58.386;15.560;2024-03-23T02:57:00;12.67;;;3.03;;
10719;SDS011;5411;58.386;15.560;2024-03-23T02:59:26;18.27;;;3.30;;
10719;SDS011;5411;58.386;15.560;2024-03-23T03:01:53;11.90;;;3.13;;
10719;SDS011;5411;58.386;15.560;2024-03-23T03:04:19;19.27;;;4.43;;
10719;SDS011;5411;58.386;15.560;2024-03-23T03:06:47;12.30;;;3.50;;
10719;SDS011;5411;58.386;15.560;2024-03-23T03:09:13;12.93;;;3.43;;
10719;SDS011;5411;58.386;15.560;2024-03-23T03:11:40;9.77;;;3.23;;
10719;SDS011;5411;58.386;15.560;2024-03-23T03:14:06;16.87;;;3.97;;
10719;SDS011;5411;58.386;15.560;2024-03-23T03:16:33;17.80;;;3.90;;
10719;SDS011;5411;58.386;15.560;2024-03-23T03:19:01;15.97;;;3.80;;
10719;SDS011;5411;58.386;15.560;2024-03-23T03:21:28;12.67;;;2.53;;
10719;SDS011;5411;58.386;15.560;2024-03-23T03:23:54;13.70;;;3.43;;
10719;SDS011;5411;58.386;15.560;2024-03-23T03:26:22;7.07;;;3.13;;
10719;SDS011;5411;58.386;15.560;2024-03-23T03:28:49;18.30;;;3.10;;
10719;SDS011;5411;58.386;15.560;2024-03-23T03:31:17;16.20;;;3.30;;
10719;SDS011;5411;58.386;15.560;2024-03-23T03:33:44;11.33;;;3.10;;
10719;SDS011;5411;58.386;15.560;2024-03-23T03:36:11;18.07;;;3.27;;
10719;SDS011;5411;58.386;15.560;2024-03-23T03:38:37;12.17;;;3.60;;
10719;SDS011;5411;58.386;15.560;2024-03-23T03:41:05;15.97;;;3.33;;
10719;SDS011;5411;58.386;15.560;2024-03-23T03:43:32;9.27;;;2.77;;
10719;SDS011;5411;58.386;15.560;2024-03-23T03:45:59;15.80;;;3.70;;
10719;SDS011;5411;58.386;15.560;2024-03-23T03:48:26;9.83;;;3.63;;
10719;SDS011;5411;58.386;15.560;2024-03-23T03:50:53;15.67;;;4.00;;
10719;SDS011;5411;58.386;15.560;2024-03-23T03:53:19;10.97;;;2.83;;
10719;SDS011;5411;58.386;15.560;2024-03-23T03:55:46;15.70;;;3.57;;
10719;SDS011;5411;58.386;15.560;2024-03-23T03:58:13;14.90;;;3.67;;
10719;SDS011;5411;58.386;15.560;2024-03-23T04:00:41;19.30;;;3.80;;
10719;SDS011;5411;58.386;15.560;2024-03-23T04:03:07;13.80;;;4.63;;
10719;SDS011;5411;58.386;15.560;2024-03-23T04:05:34;21.40;;;3.67;;
10719;SDS011;5411;58.386;15.560;2024-03-23T04:08:00;10.60;;;3.43;;
10719;SDS011;5411;58.386;15.560;2024-03-23T04:10:27;18.63;;;3.60;;
10719;SDS011;5411;58.386;15.560;2024-03-23T04:12:53;12.50;;;4.13;;
10719;SDS011;5411;58.386;15.560;2024-03-23T04:15:20;17.17;;;5.07;;
10719;SDS011;5411;58.386;15.560;2024-03-23T04:17:48;13.63;;;2.73;;
10719;SDS011;5411;58.386;15.560;2024-03-23T04:20:16;13.17;;;3.20;;
10719;SDS011;5411;58.386;15.560;2024-03-23T04:22:46;11.97;;;3.10;;
10719;SDS011;5411;58.386;15.560;2024-03-23T04:25:13;17.90;;;4.57;;
10719;SDS011;5411;58.386;15.560;2024-03-23T04:27:39;12.77;;;3.57;;
10719;SDS011;5411;58.386;15.560;2024-03-23T04:30:07;12.50;;;4.03;;
10719;SDS011;5411;58.386;15.560;2024-03-23T04:32:37;8.97;;;3.37;;
10719;SDS011;5411;58.386;15.560;2024-03-23T04:35:04;17.90;;;4.10;;
10719;SDS011;5411;58.386;15.560;2024-03-23T04:37:32;18.07;;;4.03;;
10719;SDS011;5411;58.386;15.560;2024-03-23T04:40:00;14.13;;;3.47;;
10719;SDS011;5411;58.386;15.560;2024-03-23T04:42:29;18.07;;;3.30;;
10719;SDS011;5411;58.386;15.560;2024-03-23T04:44:56;17.27;;;3.73;;
10719;SDS011;5411;58.386;15.560;2024-03-23T04:47:24;18.33;;;3.63;;
10719;SDS011;5411;58.386;15.560;2024-03-23T04:49:51;12.43;;;3.37;;
10719;SDS011;5411;58.386;15.560;2024-03-23T04:52:20;11.27;;;3.07;;
10719;SDS011;5411;58.386;15.560;2024-03-23T04:54:48;15.37;;;3.97;;
10719;SDS011;5411;58.386;15.560;2024-03-23T04:57:15;17.17;;;5.10;;
10719;SDS011;5411;58.386;15.560;2024-03-23T04:59:42;13.10;;;3.40;;
10719;SDS011;5411;58.386;15.560;2024-03-23T05:02:08;18.03;;;4.37;;
10719;SDS011;5411;58.386;15.560;2024-03-23T05:04:36;16.67;;;3.80;;
10719;SDS011;5411;58.386;15.560;2024-03-23T05:07:03;10.93;;;3.00;;
10719;SDS011;5411;58.386;15.560;2024-03-23T05:09:30;18.83;;;4.13;;
10719;SDS011;5411;58.386;15.560;2024-03-23T05:12:07;17.13;;;3.90;;
10719;SDS011;5411;58.386;15.560;2024-03-23T05:14:37;21.70;;;4.40;;
10719;SDS011;5411;58.386;15.560;2024-03-23T05:17:03;18.03;;;3.60;;
10719;SDS011;5411;58.386;15.560;2024-03-23T05:19:30;12.50;;;3.00;;
10719;SDS011;5411;58.386;15.560;2024-03-23T05:21:56;19.53;;;3.07;;
10719;SDS011;5411;58.386;15.560;2024-03-23T05:24:23;15.33;;;3.30;;
10719;SDS011;5411;58.386;15.560;2024-03-23T05:26:49;14.13;;;4.37;;
10719;SDS011;5411;58.386;15.560;2024-03-23T05:29:15;15.47;;;3.30;;
10719;SDS011;5411;58.386;15.560;2024-03-23T05:31:42;14.10;;;4.00;;
10719;SDS011;5411;58.386;15.560;2024-03-23T05:36:46;17.73;;;3.83;;
10719;SDS011;5411;58.386;15.560;2024-03-23T05:39:14;11.83;;;2.90;;
10719;SDS011;5411;58.386;15.560;2024-03-23T05:41:42;14.77;;;4.23;;
10719;SDS011;5411;58.386;15.560;2024-03-23T05:44:09;18.03;;;3.73;;
10719;SDS011;5411;58.386;15.560;2024-03-23T05:46:37;15.50;;;4.47;;
10719;SDS011;5411;58.386;15.560;2024-03-23T05:49:05;14.60;;;3.20;;
10719;SDS011;5411;58.386;15.560;2024-03-23T05:51:31;15.03;;;4.07;;
10719;SDS011;5411;58.386;15.560;2024-03-23T05:53:58;15.03;;;3.47;;
10719;SDS011;5411;58.386;15.560;2024-03-23T05:56:33;16.03;;;3.30;;
10719;SDS011;5411;58.386;15.560;2024-03-23T05:59:00;14.03;;;3.23;;
10719;SDS011;5411;58.386;15.560;2024-03-23T06:01:26;14.40;;;3.37;;
10719;SDS011;5411;58.386;15.560;2024-03-23T06:03:54;14.93;;;3.43;;
10719;SDS011;5411;58.386;15.560;2024-03-23T06:06:20;13.40;;;3.73;;
10719;SDS011;5411;58.386;15.560;2024-03-23T06:08:47;13.83;;;3.53;;
10719;SDS011;5411;58.386;15.560;2024-03-23T06:11:13;17.53;;;4.60;;
10719;SDS011;5411;58.386;15.560;2024-03-23T06:13:43;9.40;;;2.63;;
10719;SDS011;5411;58.386;15.560;2024-03-23T06:16:08;18.10;;;3.10;;
10719;SDS011;5411;58.386;15.560;2024-03-23T06:18:40;11.87;;;3.17;;
10719;SDS011;5411;58.386;15.560;2024-03-23T06:21:12;9.40;;;3.03;;
10719;SDS011;5411;58.386;15.560;2024-03-23T06:23:40;12.97;;;3.57;;
10719;SDS011;5411;58.386;15.560;2024-03-23T06:26:07;17.93;;;3.70;;
10719;SDS011;5411;58.386;15.560;2024-03-23T06:28:34;16.90;;;3.97;;
10719;SDS011;5411;58.386;15.560;2024-03-23T06:31:01;15.53;;;3.60;;
10719;SDS011;5411;58.386;15.560;2024-03-23T06:33:28;12.63;;;2.83;;
10719;SDS011;5411;58.386;15.560;2024-03-23T06:35:54;16.23;;;3.27;;
10719;SDS011;5411;58.386;15.560;2024-03-23T06:38:24;10.87;;;2.60;;
10719;SDS011;5411;58.386;15.560;2024-03-23T06:40:55;12.83;;;3.03;;
10719;SDS011;5411;58.386;15.560;2024-03-23T06:43:23;11.73;;;2.93;;
10719;SDS011;5411;58.386;15.560;2024-03-23T06:45:55;15.47;;;3.87;;
10719;SDS011;5411;58.386;15.560;2024-03-23T06:48:25;12.93;;;2.93;;
10719;SDS011;5411;58.386;15.560;2024-03-23T06:50:55;14.33;;;3.33;;
10719;SDS011;5411;58.386;15.560;2024-03-23T06:53:25;11.23;;;3.37;;
10719;SDS011;5411;58.386;15.560;2024-03-23T06:55:51;12.07;;;2.93;;
10719;SDS011;5411;58.386;15.560;2024-03-23T06:58:20;12.20;;;2.73;;
10719;SDS011;5411;58.386;15.560;2024-03-23T07:00:46;14.20;;;3.37;;
10719;SDS011;5411;58.386;15.560;2024-03-23T07:03:13;17.07;;;2.60;;
10719;SDS011;5411;58.386;15.560;2024-03-23T07:05:39;11.57;;;3.77;;
10719;SDS011;5411;58.386;15.560;2024-03-23T07:08:08;16.47;;;3.67;;
10719;SDS011;5411;58.386;15.560;2024-03-23T07:10:34;12.47;;;3.30;;
10719;SDS011;5411;58.386;15.560;2024-03-23T07:13:01;11.63;;;3.20;;
10719;SDS011;5411;58.386;15.560;2024-03-23T07:15:27;13.20;;;3.20;;
10719;SDS011;5411;58.386;15.560;2024-03-23T07:17:54;12.57;;;2.97;;
10719;SDS011;5411;58.386;15.560;2024-03-23T07:20:20;10.30;;;2.87;;
10719;SDS011;5411;58.386;15.560;2024-03-23T07:22:47;19.13;;;3.50;;
10719;SDS011;5411;58.386;15.560;2024-03-23T07:25:13;12.37;;;3.03;;
10719;SDS011;5411;58.386;15.560;2024-03-23T07:27:40;15.33;;;3.90;;
10719;SDS011;5411;58.386;15.560;2024-03-23T07:30:06;11.03;;;2.67;;
10719;SDS011;5411;58.386;15.560;2024-03-23T07:32:36;13.47;;;2.57;;
10719;SDS011;5411;58.386;15.560;2024-03-23T07:35:05;13.47;;;2.90;;
10719;SDS011;5411;58.386;15.560;2024-03-23T07:37:32;8.97;;;2.90;;
10719;SDS011;5411;58.386;15.560;2024-03-23T07:39:58;14.30;;;2.80;;
10719;SDS011;5411;58.386;15.560;2024-03-23T07:42:25;10.60;;;3.00;;
10719;SDS011;5411;58.386;15.560;2024-03-23T07:44:52;8.80;;;2.53;;
10719;SDS011;5411;58.386;15.560;2024-03-23T07:47:20;11.60;;;3.27;;
10719;SDS011;5411;58.386;15.560;2024-03-23T07:49:46;12.60;;;3.40;;
10719;SDS011;5411;58.386;15.560;2024-03-23T07:52:13;9.77;;;2.47;;
10719;SDS011;5411;58.386;15.560;2024-03-23T07:54:40;12.43;;;3.90;;
10719;SDS011;5411;58.386;15.560;2024-03-23T07:57:09;10.80;;;2.67;;
10719;SDS011;5411;58.386;15.560;2024-03-23T07:59:35;10.67;;;3.13;;
10719;SDS011;5411;58.386;15.560;2024-03-23T08:02:03;12.97;;;3.17;;
10719;SDS011;5411;58.386;15.560;2024-03-23T08:04:29;7.50;;;2.27;;
10719;SDS011;5411;58.386;15.560;2024-03-23T08:06:56;9.93;;;2.90;;
10719;SDS011;5411;58.386;15.560;2024-03-23T08:09:25;9.43;;;2.60;;
10719;SDS011;5411;58.386;15.560;2024-03-23T08:11:52;7.23;;;2.60;;
10719;SDS011;5411;58.386;15.560;2024-03-23T08:14:18;7.43;;;2.47;;
10719;SDS011;5411;58.386;15.560;2024-03-23T08:16:45;8.90;;;2.50;;
10719;SDS011;5411;58.386;15.560;2024-03-23T08:19:14;8.43;;;2.33;;
10719;SDS011;5411;58.386;15.560;2024-03-23T08:21:41;9.10;;;3.03;;
10719;SDS011;5411;58.386;15.560;2024-03-23T08:24:07;9.83;;;2.47;;
10719;SDS011;5411;58.386;15.560;2024-03-23T08:26:34;9.83;;;2.13;;
10719;SDS011;5411;58.386;15.560;2024-03-23T08:29:03;9.00;;;2.30;;
10719;SDS011;5411;58.386;15.560;2024-03-23T08:31:30;8.43;;;3.07;;
10719;SDS011;5411;58.386;15.560;2024-03-23T08:33:56;6.00;;;2.27;;
10719;SDS011;5411;58.386;15.560;2024-03-23T08:36:23;9.40;;;2.40;;
10719;SDS011;5411;58.386;15.560;2024-03-23T08:38:49;13.50;;;2.73;;
10719;SDS011;5411;58.386;15.560;2024-03-23T08:41:19;8.67;;;2.57;;
10719;SDS011;5411;58.386;15.560;2024-03-23T08:43:45;8.17;;;2.53;;
10719;SDS011;5411;58.386;15.560;2024-03-23T08:46:12;6.63;;;2.27;;
10719;SDS011;5411;58.386;15.560;2024-03-23T08:48:43;12.87;;;3.13;;
10719;SDS011;5411;58.386;15.560;2024-03-23T08:51:15;11.00;;;2.60;;
10719;SDS011;5411;58.386;15.560;2024-03-23T08:53:42;4.43;;;2.50;;
10719;SDS011;5411;58.386;15.560;2024-03-23T08:56:12;4.60;;;2.60;;
10719;SDS011;5411;58.386;15.560;2024-03-23T08:58:38;8.50;;;3.07;;
10719;SDS011;5411;58.386;15.560;2024-03-23T09:01:10;16.33;;;4.40;;
10719;SDS011;5411;58.386;15.560;2024-03-23T09:03:37;9.30;;;2.10;;
10719;SDS011;5411;58.386;15.560;2024-03-23T09:06:07;7.17;;;2.40;;
10719;SDS011;5411;58.386;15.560;2024-03-23T09:08:34;9.23;;;2.30;;
10719;SDS011;5411;58.386;15.560;2024-03-23T09:11:03;10.60;;;3.13;;
10719;SDS011;5411;58.386;15.560;2024-03-23T09:13:32;8.00;;;2.40;;
10719;SDS011;5411;58.386;15.560;2024-03-23T09:16:03;9.63;;;2.40;;
10719;SDS011;5411;58.386;15.560;2024-03-23T09:18:38;8.00;;;2.93;;
10719;SDS011;5411;58.386;15.560;2024-03-23T09:21:12;11.47;;;3.03;;
10719;SDS011;5411;58.386;15.560;2024-03-23T09:23:39;10.33;;;2.83;;
10719;SDS011;5411;58.386;15.560;2024-03-23T09:26:07;7.43;;;2.67;;
10719;SDS011;5411;58.386;15.560;2024-03-23T09:28:33;9.07;;;2.80;;
10719;SDS011;5411;58.386;15.560;2024-03-23T09:31:03;10.37;;;2.37;;
10719;SDS011;5411;58.386;15.560;2024-03-23T09:33:30;8.67;;;2.13;;
10719;SDS011;5411;58.386;15.560;2024-03-23T09:36:03;9.00;;;2.30;;
10719;SDS011;5411;58.386;15.560;2024-03-23T09:38:30;7.43;;;2.13;;
10719;SDS011;5411;58.386;15.560;2024-03-23T09:41:08;10.07;;;2.70;;
10719;SDS011;5411;58.386;15.560;2024-03-23T09:43:35;7.97;;;2.47;;
10719;SDS011;5411;58.386;15.560;2024-03-23T09:46:03;7.43;;;2.17;;
10719;SDS011;5411;58.386;15.560;2024-03-23T09:48:29;5.33;;;2.20;;
10719;SDS011;5411;58.386;15.560;2024-03-23T09:50:57;7.80;;;2.47;;
10719;SDS011;5411;58.386;15.560;2024-03-23T09:53:23;6.77;;;1.93;;
10719;SDS011;5411;58.386;15.560;2024-03-23T09:55:50;8.57;;;2.50;;
10719;SDS011;5411;58.386;15.560;2024-03-23T09:58:16;9.43;;;2.50;;
10719;SDS011;5411;58.386;15.560;2024-03-23T10:00:44;6.37;;;2.07;;
10719;SDS011;5411;58.386;15.560;2024-03-23T10:03:10;7.63;;;2.30;;
10719;SDS011;5411;58.386;15.560;2024-03-23T10:05:38;9.77;;;2.60;;
10719;SDS011;5411;58.386;15.560;2024-03-23T10:10:41;6.93;;;2.53;;
10719;SDS011;5411;58.386;15.560;2024-03-23T10:13:07;4.83;;;2.00;;
10719;SDS011;5411;58.386;15.560;2024-03-23T10:15:35;9.90;;;2.60;;
10719;SDS011;5411;58.386;15.560;2024-03-23T10:18:17;6.77;;;2.27;;
10719;SDS011;5411;58.386;15.560;2024-03-23T10:20:50;7.07;;;2.20;;
10719;SDS011;5411;58.386;15.560;2024-03-23T10:23:33;6.40;;;2.23;;
10719;SDS011;5411;58.386;15.560;2024-03-23T10:26:17;8.97;;;2.37;;
10719;SDS011;5411;58.386;15.560;2024-03-23T10:31:30;6.43;;;2.00;;
10719;SDS011;5411;58.386;15.560;2024-03-23T10:33:57;4.87;;;2.20;;
10719;SDS011;5411;58.386;15.560;2024-03-23T10:36:27;5.10;;;2.17;;
10719;SDS011;5411;58.386;15.560;2024-03-23T10:38:54;4.47;;;2.00;;
10719;SDS011;5411;58.386;15.560;2024-03-23T10:41:25;7.90;;;1.93;;
10719;SDS011;5411;58.386;15.560;2024-03-23T10:44:00;5.97;;;2.00;;
10719;SDS011;5411;58.386;15.560;2024-03-23T10:46:28;7.13;;;2.20;;
10719;SDS011;5411;58.386;15.560;2024-03-23T10:48:54;9.13;;;2.77;;
10719;SDS011;5411;58.386;15.560;2024-03-23T10:51:21;6.63;;;1.90;;
10719;SDS011;5411;58.386;15.560;2024-03-23T10:53:50;8.50;;;2.10;;
10719;SDS011;5411;58.386;15.560;2024-03-23T10:56:20;4.97;;;1.93;;
10719;SDS011;5411;58.386;15.560;2024-03-23T10:58:47;7.50;;;2.00;;
10719;SDS011;5411;58.386;15.560;2024-03-23T11:01:16;9.13;;;2.50;;
10719;SDS011;5411;58.386;15.560;2024-03-23T11:03:46;7.03;;;1.90;;
10719;SDS011;5411;58.386;15.560;2024-03-23T11:12:00;5.97;;;2.10;;
10719;SDS011;5411;58.386;15.560;2024-03-23T11:14:43;9.63;;;2.10;;
10719;SDS011;5411;58.386;15.560;2024-03-23T11:17:10;7.23;;;2.13;;
10719;SDS011;5411;58.386;15.560;2024-03-23T11:19:37;6.33;;;2.27;;
10719;SDS011;5411;58.386;15.560;2024-03-23T11:22:05;10.93;;;2.67;;
10719;SDS011;5411;58.386;15.560;2024-03-23T11:24:33;5.27;;;2.03;;
10719;SDS011;5411;58.386;15.560;2024-03-23T11:27:02;5.90;;;2.03;;
10719;SDS011;5411;58.386;15.560;2024-03-23T11:29:42;6.20;;;2.27;;
10719;SDS011;5411;58.386;15.560;2024-03-23T11:32:08;4.50;;;1.60;;
10719;SDS011;5411;58.386;15.560;2024-03-23T11:34:38;6.37;;;2.30;;
10719;SDS011;5411;58.386;15.560;2024-03-23T11:37:04;7.30;;;2.23;;
10719;SDS011;5411;58.386;15.560;2024-03-23T11:39:31;6.10;;;2.20;;
10719;SDS011;5411;58.386;15.560;2024-03-23T11:42:00;4.67;;;1.90;;
10719;SDS011;5411;58.386;15.560;2024-03-23T11:44:30;6.53;;;2.00;;
10719;SDS011;5411;58.386;15.560;2024-03-23T11:47:07;6.73;;;1.77;;
10719;SDS011;5411;58.386;15.560;2024-03-23T11:49:36;5.23;;;2.10;;
10719;SDS011;5411;58.386;15.560;2024-03-23T11:52:06;5.53;;;2.00;;
10719;SDS011;5411;58.386;15.560;2024-03-23T11:54:36;4.57;;;1.93;;
10719;SDS011;5411;58.386;15.560;2024-03-23T11:57:03;6.63;;;2.10;;
10719;SDS011;5411;58.386;15.560;2024-03-23T11:59:34;5.67;;;2.07;;
10719;SDS011;5411;58.386;15.560;2024-03-23T12:02:06;6.33;;;1.93;;
10719;SDS011;5411;58.386;15.560;2024-03-23T12:04:40;9.23;;;2.20;;
10719;SDS011;5411;58.386;15.560;2024-03-23T12:07:17;7.83;;;2.57;;
10719;SDS011;5411;58.386;15.560;2024-03-23T12:09:46;6.60;;;2.13;;
10719;SDS011;5411;58.386;15.560;2024-03-23T12:12:29;4.70;;;2.43;;
10719;SDS011;5411;58.386;15.560;2024-03-23T12:15:06;5.30;;;1.73;;
10719;SDS011;5411;58.386;15.560;2024-03-23T12:17:34;6.17;;;1.80;;
10719;SDS011;5411;58.386;15.560;2024-03-23T12:20:01;11.17;;;2.77;;
10719;SDS011;5411;58.386;15.560;2024-03-23T12:22:28;5.43;;;1.50;;
10719;SDS011;5411;58.386;15.560;2024-03-23T12:24:56;8.80;;;2.37;;
10719;SDS011;5411;58.386;15.560;2024-03-23T12:27:25;5.20;;;2.03;;
10719;SDS011;5411;58.386;15.560;2024-03-23T12:29:56;5.33;;;1.67;;
10719;SDS011;5411;58.386;15.560;2024-03-23T12:32:27;5.40;;;1.80;;
10719;SDS011;5411;58.386;15.560;2024-03-23T12:34:54;4.30;;;1.60;;
10719;SDS011;5411;58.386;15.560;2024-03-23T12:37:20;5.43;;;1.77;;
10719;SDS011;5411;58.386;15.560;2024-03-23T12:39:47;3.70;;;1.73;;
10719;SDS011;5411;58.386;15.560;2024-03-23T12:42:13;7.50;;;1.80;;
10719;SDS011;5411;58.386;15.560;2024-03-23T12:44:40;6.70;;;1.70;;
10719;SDS011;5411;58.386;15.560;2024-03-23T12:47:10;5.20;;;1.90;;
10719;SDS011;5411;58.386;15.560;2024-03-23T12:49:39;5.77;;;2.03;;
10719;SDS011;5411;58.386;15.560;2024-03-23T12:52:05;4.77;;;1.80;;
10719;SDS011;5411;58.386;15.560;2024-03-23T12:54:34;6.93;;;2.10;;
10719;SDS011;5411;58.386;15.560;2024-03-23T12:57:00;6.73;;;2.10;;
10719;SDS011;5411;58.386;15.560;2024-03-23T12:59:28;5.00;;;2.07;;
10719;SDS011;5411;58.386;15.560;2024-03-23T13:01:54;5.20;;;1.87;;
10719;SDS011;5411;58.386;15.560;2024-03-23T13:04:22;7.40;;;1.93;;
10719;SDS011;5411;58.386;15.560;2024-03-23T13:06:48;5.77;;;1.90;;
10719;SDS011;5411;58.386;15.560;2024-03-23T13:09:15;6.07;;;2.10;;
10719;SDS011;5411;58.386;15.560;2024-03-23T13:11:44;5.67;;;1.90;;
10719;SDS011;5411;58.386;15.560;2024-03-23T13:14:11;4.40;;;2.17;;
10719;SDS011;5411;58.386;15.560;2024-03-23T13:16:40;4.63;;;1.60;;
10719;SDS011;5411;58.386;15.560;2024-03-23T13:19:07;4.83;;;1.37;;
10719;SDS011;5411;58.386;15.560;2024-03-23T13:21:33;7.43;;;1.80;;
10719;SDS011;5411;58.386;15.560;2024-03-23T13:24:00;4.67;;;2.00;;
10719;SDS011;5411;58.386;15.560;2024-03-23T13:26:26;5.37;;;1.73;;
10719;SDS011;5411;58.386;15.560;2024-03-23T13:28:53;5.40;;;1.93;;
10719;SDS011;5411;58.386;15.560;2024-03-23T13:31:19;7.60;;;2.00;;
10719;SDS011;5411;58.386;15.560;2024-03-23T13:33:46;5.77;;;2.27;;
10719;SDS011;5411;58.386;15.560;2024-03-23T13:36:13;8.30;;;2.40;;
10719;SDS011;5411;58.386;15.560;2024-03-23T13:38:40;5.93;;;1.90;;
10719;SDS011;5411;58.386;15.560;2024-03-23T13:41:10;5.63;;;2.30;;
10719;SDS011;5411;58.386;15.560;2024-03-23T13:43:37;5.77;;;2.30;;
10719;SDS011;5411;58.386;15.560;2024-03-23T13:46:05;8.17;;;2.23;;
10719;SDS011;5411;58.386;15.560;2024-03-23T13:48:31;8.80;;;1.90;;
10719;SDS011;5411;58.386;15.560;2024-03-23T13:51:03;6.27;;;2.13;;
10719;SDS011;5411;58.386;15.560;2024-03-23T13:56:37;6.67;;;1.97;;
10719;SDS011;5411;58.386;15.560;2024-03-23T13:59:04;6.67;;;2.10;;
10719;SDS011;5411;58.386;15.560;2024-03-23T14:01:30;7.43;;;1.87;;
10719;SDS011;5411;58.386;15.560;2024-03-23T14:03:58;3.47;;;1.73;;
10719;SDS011;5411;58.386;15.560;2024-03-23T14:06:27;4.30;;;1.60;;
10719;SDS011;5411;58.386;15.560;2024-03-23T14:08:54;3.70;;;1.50;;
10719;SDS011;5411;58.386;15.560;2024-03-23T14:11:20;5.03;;;1.70;;
10719;SDS011;5411;58.386;15.560;2024-03-23T14:13:47;5.30;;;1.67;;
10719;SDS011;5411;58.386;15.560;2024-03-23T14:16:13;6.27;;;1.77;;
10719;SDS011;5411;58.386;15.560;2024-03-23T14:18:40;3.70;;;1.50;;
10719;SDS011;5411;58.386;15.560;2024-03-23T14:21:06;3.60;;;1.70;;
10719;SDS011;5411;58.386;15.560;2024-03-23T14:23:33;3.20;;;1.63;;
10719;SDS011;5411;58.386;15.560;2024-03-23T14:25:59;5.07;;;1.70;;
10719;SDS011;5411;58.386;15.560;2024-03-23T14:28:26;3.50;;;1.77;;
10719;SDS011;5411;58.386;15.560;2024-03-23T14:30:55;6.13;;;1.73;;
10719;SDS011;5411;58.386;15.560;2024-03-23T14:33:22;4.77;;;1.53;;
10719;SDS011;5411;58.386;15.560;2024-03-23T14:35:53;3.73;;;1.50;;
10719;SDS011;5411;58.386;15.560;2024-03-23T14:38:21;5.50;;;1.73;;
10719;SDS011;5411;58.386;15.560;2024-03-23T14:40:47;7.77;;;1.80;;
10719;SDS011;5411;58.386;15.560;2024-03-23T14:43:14;4.03;;;1.63;;
10719;SDS011;5411;58.386;15.560;2024-03-23T14:48:32;6.47;;;1.57;;
10719;SDS011;5411;58.386;15.560;2024-03-23T14:50:59;7.20;;;1.87;;
10719;SDS011;5411;58.386;15.560;2024-03-23T14:53:26;5.83;;;1.80;;
10719;SDS011;5411;58.386;15.560;2024-03-23T14:55:55;3.37;;;1.70;;
10719;SDS011;5411;58.386;15.560;2024-03-23T14:58:23;6.50;;;1.90;;
10719;SDS011;5411;58.386;15.560;2024-03-23T15:00:50;7.80;;;2.20;;
10719;SDS011;5411;58.386;15.560;2024-03-23T15:03:17;4.37;;;1.63;;
10719;SDS011;5411;58.386;15.560;2024-03-23T15:05:54;8.83;;;2.30;;
10719;SDS011;5411;58.386;15.560;2024-03-23T15:08:22;5.97;;;1.93;;
10719;SDS011;5411;58.386;15.560;2024-03-23T15:10:48;4.20;;;1.60;;
10719;SDS011;5411;58.386;15.560;2024-03-23T15:13:16;5.00;;;1.60;;
10719;SDS011;5411;58.386;15.560;2024-03-23T15:15:43;4.90;;;1.63;;
10719;SDS011;5411;58.386;15.560;2024-03-23T15:18:13;4.47;;;2.03;;
10719;SDS011;5411;58.386;15.560;2024-03-23T15:20:41;4.03;;;1.40;;
10719;SDS011;5411;58.386;15.560;2024-03-23T15:23:16;4.33;;;1.50;;
10719;SDS011;5411;58.386;15.560;2024-03-23T15:25:43;2.97;;;1.37;;
10719;SDS011;5411;58.386;15.560;2024-03-23T15:28:09;2.73;;;1.20;;
10719;SDS011;5411;58.386;15.560;2024-03-23T15:30:36;2.20;;;1.30;;
10719;SDS011;5411;58.386;15.560;2024-03-23T15:33:03;3.83;;;1.37;;
10719;SDS011;5411;58.386;15.560;2024-03-23T15:35:29;1.27;;;1.20;;
10719;SDS011;5411;58.386;15.560;2024-03-23T15:37:55;2.37;;;0.90;;
10719;SDS011;5411;58.386;15.560;2024-03-23T15:40:22;3.03;;;1.30;;
10719;SDS011;5411;58.386;15.560;2024-03-23T15:42:48;1.63;;;1.40;;
10719;SDS011;5411;58.386;15.560;2024-03-23T15:45:16;4.60;;;1.10;;
10719;SDS011;5411;58.386;15.560;2024-03-23T15:47:44;2.63;;;1.60;;
10719;SDS011;5411;58.386;15.560;2024-03-23T15:50:11;2.58;;;1.60;;
10719;SDS011;5411;58.386;15.560;2024-03-23T15:52:37;3.10;;;1.40;;
10719;SDS011;5411;58.386;15.560;2024-03-23T15:55:04;4.37;;;1.50;;
10719;SDS011;5411;58.386;15.560;2024-03-23T15:57:34;3.03;;;1.60;;
10719;SDS011;5411;58.386;15.560;2024-03-23T16:00:02;3.40;;;1.83;;